Flight Track Log - Related Links

Times and Time Zones

All times are in EDT time to prevent confusion due to time zone crossing. See the UAL563 flight status page for this flight to view local times or setup timezone preferences in your user account.

Time Position Orientation Groundspeed Altitude Reporting Facility
EDT Latitude Longitude Course Direction KTS MPH feet Rate Location/Type
Sun 04:37:07 PM 39.8667 -75.2833 288° West 159 183 900  Level Philadelphia TRACON
Sun 04:38:01 PM 39.8500 -75.3333 247° West 196 226 2,500 2,300 Climbing Philadelphia TRACON
Sun 04:39:00 PM 39.9575 -75.6179 311° West  Level Estimated
Sun 04:39:07 PM 39.8500 -75.4167 270° West 242 278 5,500  Level Philadelphia TRACON
Sun 04:40:00 PM 39.9856 -75.7438 315° West  Level Estimated
Sun 04:40:01 PM 39.9167 -75.4500 339° North 286 329 8,200  Level Philadelphia TRACON
Sun 04:41:00 PM 40.0136 -75.8698 308° West  Level Estimated
Sun 04:41:01 PM 40.0000 -75.4833 343° North 297 342 10,800  Level Philadelphia TRACON
Sun 04:42:00 PM 40.0415 -75.9959 288° West  Level Estimated
Sun 04:42:26 PM 40.1239 -75.5269 345° North 388 447 13,100  Level New York Center
Sun 04:43:26 PM 40.2225 -75.5636 344° North 383 441 14,400 1,900 Climbing New York Center
Sun 04:44:26 PM 40.2853 -75.6578 311° West 344 396 16,900 1,300 Climbing New York Center
Sun 04:45:26 PM 40.3464 -75.7436 313° West 350 403 17,000 600 Climbing New York Center
Sun 04:46:26 PM 40.4089 -75.8408 310° West 350 403 18,100 1,600 Climbing New York Center
Sun 04:47:26 PM 40.4517 -75.9586 296° West 355 409 20,200 2,000 Climbing New York Center
Sun 04:48:26 PM 40.4708 -76.0911 281° West 355 409 22,100 1,700 Climbing New York Center
Sun 04:49:26 PM 40.4919 -76.2211 282° West 366 421 23,600 1,500 Climbing New York Center
Sun 04:50:26 PM 40.5108 -76.3561 280° West 371 427 25,100 1,500 Climbing New York Center
Sun 04:51:26 PM 40.5353 -76.4947 283° West 382 440 26,600 1,400 Climbing New York Center
Sun 04:52:26 PM 40.5536 -76.6356 280° West 387 445 27,900 1,300 Climbing New York Center
Sun 04:53:26 PM 40.5669 -76.7844 277° West 402 463 29,200 1,250 Climbing New York Center
Sun 04:54:26 PM 40.5803 -76.9278 277° West 407 468 30,400 1,294 Climbing New York Center
Sun 04:56:50 PM 40.6142 -77.2744 277° West 408 470 33,600 1,369 Climbing Cleveland Center
Sun 04:57:52 PM 40.6278 -77.4500 276° West 405 466 35,100 1,161 Climbing Cleveland Center
Sun 04:58:54 PM 40.6394 -77.5933 276° West 399 459 36,000 435 Climbing Cleveland Center
Sun 04:59:56 PM 40.6500 -77.7350 276° West 395 455 36,000  Level Cleveland Center
Sun 05:00:58 PM 40.6656 -77.8761 278° West 393 452 36,000  Level Cleveland Center
Sun 05:02:00 PM 40.6869 -78.0175 281° West 395 455 36,000  Level Cleveland Center
Sun 05:03:02 PM 40.7097 -78.1886 280° West 396 456 36,000  Level Cleveland Center
Sun 05:04:04 PM 40.7300 -78.3311 281° West 396 456 36,000  Level Cleveland Center
Sun 05:05:06 PM 40.7489 -78.4731 280° West 395 455 36,000  Level Cleveland Center
Sun 05:06:08 PM 40.7678 -78.6172 280° West 395 455 36,000  Level Cleveland Center
Sun 05:07:10 PM 40.7872 -78.7611 280° West 397 457 36,000  Level Cleveland Center
Sun 05:08:12 PM 40.8058 -78.9067 280° West 400 460 36,000  Level Cleveland Center
Sun 05:09:15 PM 40.8242 -79.0469 280° West 399 459 36,000  Level Cleveland Center
Sun 05:10:17 PM 40.8464 -79.2178 280° West 395 455 36,000  Level Cleveland Center
Sun 05:11:19 PM 40.8644 -79.3597 280° West 395 455 36,000  Level Cleveland Center
Sun 05:12:21 PM 40.8836 -79.5039 280° West 400 460 36,000  Level Cleveland Center
Sun 05:13:23 PM 40.9017 -79.6461 280° West 397 457 36,000  Level Cleveland Center
Sun 05:14:25 PM 40.9181 -79.7886 279° West 397 457 36,000  Level Cleveland Center
Sun 05:15:27 PM 40.9397 -79.9583 280° West 394 453 36,000  Level Cleveland Center
Sun 05:16:29 PM 40.9567 -80.1008 279° West 396 456 36,000  Level Cleveland Center
Sun 05:17:31 PM 40.9733 -80.2433 279° West 397 457 36,000  Level Cleveland Center
Sun 05:18:33 PM 40.9906 -80.3861 279° West 397 457 36,000  Level Cleveland Center
Sun 05:19:36 PM 41.0075 -80.5281 279° West 395 455 36,000  Level Cleveland Center
Sun 05:20:38 PM 41.0267 -80.6981 279° West 393 452 36,000  Level Cleveland Center
Sun 05:21:40 PM 41.0431 -80.8411 279° West 393 452 36,000  Level Cleveland Center
Sun 05:22:42 PM 41.0544 -80.9831 276° West 391 450 36,000  Level Cleveland Center
Sun 05:23:44 PM 41.0639 -81.1356 275° West 392 451 36,000  Level Cleveland Center
Sun 05:24:46 PM 41.0725 -81.2806 275° West 391 450 36,000  Level Cleveland Center
Sun 05:25:48 PM 41.0811 -81.4267 275° West 392 451 36,000  Level Cleveland Center
Sun 05:26:50 PM 41.0906 -81.5736 275° West 394 453 36,000  Level Cleveland Center
Sun 05:27:52 PM 41.0981 -81.7208 274° West 392 451 36,000  Level Cleveland Center
Sun 05:28:54 PM 41.1069 -81.8672 275° West 391 450 36,000  Level Cleveland Center
Sun 05:29:56 PM 41.1175 -82.0342 275° West 385 443 36,000  Level Cleveland Center
Sun 05:30:58 PM 41.1253 -82.1758 274° West 383 441 36,000  Level Cleveland Center
Sun 05:32:00 PM 41.1331 -82.3189 274° West 383 441 36,000  Level Cleveland Center
Sun 05:33:03 PM 41.1406 -82.4600 274° West 382 440 36,000  Level Cleveland Center
Sun 05:34:05 PM 41.1481 -82.6011 274° West 381 438 36,000  Level Cleveland Center
Sun 05:35:07 PM 41.1556 -82.7428 274° West 382 440 36,000  Level Cleveland Center
Sun 05:36:09 PM 41.1631 -82.8844 274° West 381 438 36,000  Level Cleveland Center
Sun 05:37:11 PM 41.1694 -83.0258 273° West 383 441 36,000  Level Cleveland Center
Sun 05:38:13 PM 41.1772 -83.1778 274° West 383 441 36,000  Level Cleveland Center
Sun 05:39:15 PM 41.1839 -83.3189 274° West 383 441 36,000  Level Cleveland Center
Sun 05:40:17 PM 41.1903 -83.4614 273° West 386 444 36,000  Level Cleveland Center
Sun 05:41:19 PM 41.1978 -83.6311 273° West 385 443 36,000  Level Cleveland Center
Sun 05:42:21 PM 41.2042 -83.7753 273° West 390 449 36,000  Level Cleveland Center
Sun 05:43:23 PM 41.2108 -83.9097 274° West 386 444 36,000  Level Cleveland Center
Sun 05:44:26 PM 41.2158 -84.0533 273° West 388 447 36,000  Level Cleveland Center
Sun 05:45:28 PM 41.2225 -84.1972 274° West 389 448 36,000 -435 Level Cleveland Center
Sun 05:46:30 PM 41.2269 -84.3694 272° West 390 449 35,100 -919 Descending Cleveland Center
Sun 05:47:32 PM 41.2311 -84.5147 272° West 393 452 34,100 -532 Descending Cleveland Center
Sun 05:48:34 PM 41.2358 -84.6619 272° West 397 457 34,000 -48 Descending Cleveland Center
Sun 05:49:36 PM 41.2400 -84.8097 272° West 399 459 34,000  Level Cleveland Center
Sun 05:50:38 PM 41.2453 -84.9564 273° West 397 457 34,000 -484 Level Cleveland Center
Sun 05:51:40 PM 41.2489 -85.1022 272° West 395 455 33,000 -1,065 Descending Cleveland Center
Sun 05:52:42 PM 41.2536 -85.2772 272° West 392 451 31,800 -1,065 Descending Cleveland Center
Sun 05:53:44 PM 41.2572 -85.4192 272° West 385 443 30,800 -1,403 Descending Cleveland Center
Sun 05:54:46 PM 41.2619 -85.5778 272° West 415 478 28,900 -1,984 Descending Cleveland Center
Sun 05:55:48 PM 41.2683 -85.7314 273° West 416 479 26,700 -1,872 Descending Cleveland Center
Sun 05:56:51 PM 41.3033 -85.8706 289° West 397 457 25,000 -864 Descending Cleveland Center
Sun 05:57:53 PM 41.3403 -86.0122 289° West 402 463 24,900 -1,548 Descending Cleveland Center
Sun 05:58:55 PM 41.3775 -86.1550 289° West 406 467 21,800 -2,468 Descending Cleveland Center
Sun 05:59:57 PM 41.4122 -86.2939 288° West 400 460 19,800 -1,830 Descending Cleveland Center
Sun 06:01:16 PM 41.4736 -86.4736 295° West 387 445 17,500 -1,830 Descending Chicago Center
Sun 06:02:18 PM 41.5369 -86.5847 307° West 377 434 15,500 -1,920 Descending Chicago Center
Sun 06:03:21 PM 41.5992 -86.6933 307° West 371 427 13,500 -1,680 Descending Chicago Center
Sun 06:04:23 PM 41.6700 -86.7931 314° West 356 410 12,000 -1,210 Descending Chicago Center
Sun 06:05:25 PM 41.7778 -86.8100 353° North 327 376 11,000 -484 Descending Chicago Center
Sun 06:06:27 PM 41.8636 -86.8325 349° North 319 367 11,000 -484 Level Chicago Center
Sun 06:07:29 PM 41.9103 -86.9194 306° West 291 335 10,000 -484 Descending Chicago Center
Sun 06:08:31 PM 41.9506 -87.0128 300° West 293 337 10,000 -242 Level Chicago Center
Sun 06:09:33 PM 41.9756 -87.1050 290° West 265 305 9,500 -1,065 Descending Chicago Center
Sun 06:10:35 PM 41.9831 -87.2139 275° West 247 284 7,800 -1,210 Descending Chicago Center
Sun 06:11:37 PM 41.9822 -87.3058 269° West 247 284 7,000 -387 Descending Chicago Center
Sun 06:12:39 PM 41.9842 -87.3903 272° West 235 270 7,000 -48 Level Chicago Center
Sun 06:13:42 PM 41.9836 -87.4644 269° West 213 245 6,900 -480 Descending Chicago Center
Sun 06:14:44 PM 41.9850 -87.5314 272° West 191 220 6,000 -1,065 Descending Chicago Center
Sun 06:15:46 PM 41.9839 -87.6106 269° West 182 209 4,700 -1,140 Descending Chicago Center
Sun 06:16:45 PM 41.9833 -87.6833 269° West 176 203 3,700 -958 Descending Chicago TRACON
Sun 06:17:45 PM 41.9833 -87.7500 270° West 181 208 2,800 -905 Descending Chicago TRACON
Sun 06:18:51 PM 41.9833 -87.8167 270° West 170 196 1,800 -843 Descending Chicago TRACON
Sun 06:19:46 PM 41.9833 -87.8667 270° West 130 150 1,100 -764 Descending Chicago TRACON

Login

Don't have an account? Register now (free) for customized features, flight alerts, and more!